createdAt,value
2018-06-21T00:02:20.923Z,92.60
2018-06-21T00:04:49.403Z,92.50
2018-06-21T00:07:18.011Z,92.40
2018-06-21T00:09:46.516Z,92.50
2018-06-21T00:12:15.091Z,92.40
2018-06-21T00:14:43.718Z,92.40
2018-06-21T00:17:12.298Z,92.50
2018-06-21T00:19:40.863Z,92.70
2018-06-21T00:22:09.532Z,92.70
2018-06-21T00:24:38.059Z,92.70
2018-06-21T00:27:06.952Z,93.00
2018-06-21T00:29:35.472Z,92.80
2018-06-21T00:32:04.069Z,93.00
2018-06-21T00:34:32.586Z,93.10
2018-06-21T00:37:01.107Z,93.10
2018-06-21T00:39:29.614Z,93.10
2018-06-21T00:41:58.090Z,93.10
2018-06-21T00:44:26.843Z,93.10
2018-06-21T00:46:55.641Z,93.10
2018-06-21T00:49:24.157Z,93.30
2018-06-21T00:51:52.653Z,93.30
2018-06-21T00:54:21.192Z,93.40
2018-06-21T00:56:49.799Z,93.60
2018-06-21T00:59:18.378Z,93.70
2018-06-21T01:01:46.901Z,93.70
2018-06-21T01:04:15.583Z,93.80
2018-06-21T01:06:44.145Z,93.80
2018-06-21T01:09:12.777Z,93.80
2018-06-21T01:11:41.288Z,93.50
2018-06-21T01:14:09.867Z,93.90
2018-06-21T01:16:38.367Z,94.00
2018-06-21T01:19:06.860Z,94.10
2018-06-21T01:21:35.509Z,94.20
2018-06-21T01:24:04.127Z,94.70
2018-06-21T01:26:32.726Z,94.50
2018-06-21T01:29:01.231Z,94.50
2018-06-21T01:31:29.796Z,94.50
2018-06-21T01:33:58.606Z,94.60
2018-06-21T01:36:27.354Z,94.60
2018-06-21T01:38:55.945Z,94.80
2018-06-21T01:41:24.465Z,95.00
2018-06-21T01:43:53.056Z,95.00
2018-06-21T01:46:21.583Z,95.00
2018-06-21T01:48:50.596Z,95.20
2018-06-21T01:53:47.287Z,95.20
2018-06-21T01:56:15.867Z,95.30
2018-06-21T01:58:44.395Z,95.30
2018-06-21T02:01:12.978Z,95.30
2018-06-21T02:03:41.497Z,95.70
2018-06-21T02:06:10.072Z,95.30
2018-06-21T02:08:38.540Z,95.30
2018-06-21T02:11:07.334Z,95.20
2018-06-21T02:13:35.921Z,95.10
2018-06-21T02:16:04.506Z,95.10
2018-06-21T02:18:33.247Z,95.10
2018-06-21T02:21:01.746Z,95.00
2018-06-21T02:23:30.294Z,94.90
2018-06-21T02:25:58.812Z,94.90
2018-06-21T02:28:27.298Z,94.90
2018-06-21T02:30:55.811Z,95.10
2018-06-21T02:33:24.300Z,95.20
2018-06-21T02:35:52.861Z,95.30
2018-06-21T02:38:21.439Z,95.20
2018-06-21T02:40:49.976Z,95.30
2018-06-21T02:43:18.519Z,95.10
2018-06-21T02:45:47.031Z,95.20
2018-06-21T02:48:15.669Z,95.50
2018-06-21T02:50:44.233Z,95.70
2018-06-21T02:53:12.879Z,95.60
2018-06-21T02:55:41.396Z,95.60
2018-06-21T02:58:09.903Z,95.90
2018-06-21T03:00:38.463Z,95.40
2018-06-21T03:03:06.979Z,95.40
2018-06-21T03:05:35.463Z,95.40
2018-06-21T03:08:04.345Z,95.30
2018-06-21T03:10:33.008Z,95.20
2018-06-21T03:13:01.830Z,95.40
2018-06-21T03:15:30.445Z,95.40
2018-06-21T03:17:58.946Z,95.50
2018-06-21T03:20:27.810Z,95.50
2018-06-21T03:22:56.415Z,95.60
2018-06-21T03:25:24.937Z,95.80
2018-06-21T03:27:53.481Z,95.90
2018-06-21T03:30:21.997Z,95.80
2018-06-21T03:32:50.741Z,95.70
2018-06-21T03:35:19.277Z,95.50
2018-06-21T03:37:48.068Z,95.60
2018-06-21T03:40:16.945Z,95.50
2018-06-21T03:42:45.512Z,95.80
2018-06-21T03:45:14.199Z,96.20
2018-06-21T03:47:42.698Z,95.80
2018-06-21T03:50:11.263Z,95.80
2018-06-21T03:52:39.946Z,95.70
2018-06-21T03:55:08.499Z,96.00
2018-06-21T03:57:37.002Z,95.70
2018-06-21T04:00:06.048Z,95.80
2018-06-21T04:02:34.638Z,95.50
2018-06-21T04:05:03.184Z,96.10
2018-06-21T04:07:31.748Z,96.00
2018-06-21T04:10:00.279Z,96.50
2018-06-21T04:12:29.041Z,96.40
2018-06-21T04:14:57.687Z,96.30
2018-06-21T04:17:26.464Z,96.10
2018-06-21T04:19:55.198Z,96.00
2018-06-21T04:22:23.735Z,95.80
2018-06-21T04:24:52.222Z,95.80
2018-06-21T04:27:20.911Z,95.40
2018-06-21T04:29:49.473Z,95.30
2018-06-21T04:32:18.233Z,95.00
2018-06-21T04:34:46.819Z,95.10
2018-06-21T04:37:15.380Z,95.00
2018-06-21T04:39:44.031Z,95.10
2018-06-21T04:42:12.547Z,95.20
2018-06-21T04:44:41.355Z,95.50
2018-06-21T04:47:10.227Z,95.30
2018-06-21T04:49:38.808Z,95.30
2018-06-21T04:52:07.711Z,94.70
2018-06-21T04:54:36.495Z,94.70
2018-06-21T04:57:05.821Z,94.30
2018-06-21T04:59:34.574Z,94.20
2018-06-21T05:02:03.171Z,94.20
2018-06-21T05:04:31.691Z,94.50
2018-06-21T05:07:00.244Z,94.60
2018-06-21T05:09:28.775Z,94.10
2018-06-21T05:11:57.279Z,94.00
2018-06-21T05:14:25.995Z,93.80
2018-06-21T05:16:54.603Z,93.40
2018-06-21T05:19:23.148Z,93.10
2018-06-21T05:21:51.992Z,92.10
2018-06-21T05:24:20.574Z,92.40
2018-06-21T05:26:49.120Z,92.20
2018-06-21T05:29:17.881Z,91.50
2018-06-21T05:44:38.731Z,89.30
2018-06-21T05:47:07.248Z,89.10
2018-06-21T05:49:35.694Z,89.50
2018-06-21T05:52:04.161Z,88.10
2018-06-21T05:54:32.663Z,87.70
2018-06-21T05:57:01.099Z,87.10
2018-06-21T05:59:29.555Z,86.00
2018-06-21T06:01:58.043Z,85.50
2018-06-21T06:04:26.510Z,84.30
2018-06-21T06:06:54.946Z,83.70
2018-06-21T06:09:23.410Z,84.20
2018-06-21T06:11:51.903Z,84.00
2018-06-21T06:14:20.390Z,84.40
2018-06-21T06:16:48.909Z,84.10
2018-06-21T06:19:17.358Z,83.60
2018-06-21T06:21:46.102Z,83.60
2018-06-21T06:24:14.620Z,83.00
2018-06-21T06:26:43.070Z,82.30
2018-06-21T06:29:11.605Z,82.70
2018-06-21T06:31:40.632Z,83.10
2018-06-21T06:34:09.462Z,81.50
2018-06-21T06:36:37.939Z,81.30
2018-06-21T06:39:14.259Z,80.10
2018-06-21T06:41:42.774Z,79.00
2018-06-21T06:44:11.415Z,79.40
2018-06-21T06:46:39.959Z,79.60
2018-06-21T06:49:08.904Z,79.80
2018-06-21T06:51:37.897Z,80.00
2018-06-21T06:54:06.467Z,77.70
2018-06-21T06:56:35.025Z,77.60
2018-06-21T06:59:03.530Z,77.30
2018-06-21T07:01:32.104Z,78.00
2018-06-21T07:04:00.652Z,77.40
2018-06-21T07:08:58.218Z,75.50
2018-06-21T07:11:27.708Z,76.00
2018-06-21T07:13:57.083Z,76.40
2018-06-21T07:16:26.130Z,75.30
2018-06-21T07:18:54.663Z,74.10
2018-06-21T07:21:23.311Z,73.70
2018-06-21T07:23:52.209Z,73.60
2018-06-21T07:26:20.881Z,70.20
2018-06-21T07:28:49.572Z,69.80
2018-06-21T07:31:18.230Z,68.80
2018-06-21T07:33:46.972Z,68.80
2018-06-21T07:36:15.760Z,70.00
2018-06-21T07:38:44.390Z,69.20
2018-06-21T07:43:41.046Z,67.30
2018-06-21T07:46:09.618Z,65.20
2018-06-21T07:48:38.114Z,63.70
2018-06-21T07:51:06.774Z,65.10
2018-06-21T07:53:35.409Z,64.10
2018-06-21T07:56:04.205Z,63.50
2018-06-21T07:58:32.813Z,65.10
2018-06-21T08:01:01.392Z,61.70
2018-06-21T08:03:30.333Z,62.20
2018-06-21T08:05:59.144Z,61.90
2018-06-21T08:08:27.732Z,61.70
2018-06-21T08:10:56.429Z,59.60
2018-06-21T08:13:25.011Z,60.20
2018-06-21T08:15:54.113Z,61.20
2018-06-21T08:18:22.698Z,61.90
2018-06-21T08:20:51.276Z,61.10
2018-06-21T08:23:19.851Z,62.70
2018-06-21T08:25:48.574Z,63.10
2018-06-21T08:28:17.168Z,64.30
2018-06-21T08:30:46.328Z,64.80
2018-06-21T08:33:14.979Z,62.80
2018-06-21T08:35:43.637Z,62.70
2018-06-21T08:38:12.229Z,61.60
2018-06-21T08:40:40.930Z,60.20
2018-06-21T08:43:09.910Z,61.60
2018-06-21T08:45:38.610Z,60.50
2018-06-21T08:48:07.179Z,59.00
2018-06-21T08:50:36.218Z,59.70
2018-06-21T08:53:04.817Z,58.00
2018-06-21T08:55:33.348Z,57.60
2018-06-21T08:58:05.876Z,56.50
2018-06-21T09:00:34.517Z,56.80
2018-06-21T09:03:03.075Z,57.10
2018-06-21T09:05:31.679Z,56.00
2018-06-21T09:08:00.206Z,56.90
2018-06-21T09:10:28.740Z,56.20
2018-06-21T09:12:57.239Z,55.80
2018-06-21T09:15:25.780Z,57.20
2018-06-21T09:17:54.191Z,57.40
2018-06-21T09:20:22.737Z,57.90
2018-06-21T09:22:51.229Z,57.50
2018-06-21T09:25:19.738Z,55.40
2018-06-21T09:27:48.326Z,56.10
2018-06-21T09:30:16.834Z,56.20
2018-06-21T09:32:45.302Z,55.20
2018-06-21T09:35:13.745Z,56.00
2018-06-21T09:37:47.445Z,54.20
2018-06-21T09:40:21.244Z,55.30
2018-06-21T09:42:55.039Z,55.60
2018-06-21T09:45:28.951Z,56.00
2018-06-21T09:48:02.684Z,57.10
2018-06-21T09:50:31.119Z,55.60
2018-06-21T09:52:59.601Z,56.20
2018-06-21T09:55:28.083Z,55.80
2018-06-21T09:57:57.794Z,56.00
2018-06-21T10:00:31.642Z,56.00
2018-06-21T10:03:00.111Z,54.20
2018-06-21T10:05:28.587Z,54.90
2018-06-21T10:07:57.082Z,52.20
2018-06-21T10:10:25.564Z,51.50
2018-06-21T10:12:54.149Z,51.40
2018-06-21T10:15:22.618Z,51.40
2018-06-21T10:17:51.130Z,52.00
2018-06-21T10:20:19.663Z,51.50
2018-06-21T10:22:48.184Z,51.00
2018-06-21T10:25:16.728Z,50.70
2018-06-21T10:27:45.259Z,51.90
2018-06-21T10:30:13.860Z,51.70
2018-06-21T10:32:42.448Z,51.00
2018-06-21T10:35:10.990Z,47.70
2018-06-21T10:37:39.507Z,47.60
2018-06-21T10:40:08.044Z,48.60
2018-06-21T10:42:36.578Z,47.90
2018-06-21T10:45:05.155Z,47.80
2018-06-21T10:47:33.708Z,49.50
2018-06-21T10:50:02.266Z,49.00
2018-06-21T10:52:30.775Z,48.50
2018-06-21T10:54:59.348Z,47.80
2018-06-21T10:57:27.881Z,48.40
2018-06-21T10:59:56.406Z,47.40
2018-06-21T11:02:25.851Z,47.90
2018-06-21T11:04:54.420Z,48.40
2018-06-21T11:07:22.914Z,49.20
2018-06-21T11:09:51.451Z,48.90
2018-06-21T11:12:19.999Z,47.30
2018-06-21T11:14:48.565Z,48.00
2018-06-21T11:17:17.217Z,47.80
2018-06-21T11:19:45.725Z,47.10
2018-06-21T11:22:14.314Z,47.30
2018-06-21T11:24:42.918Z,47.00
2018-06-21T11:27:11.427Z,47.40
2018-06-21T11:29:39.894Z,46.10
2018-06-21T11:32:08.362Z,46.60
2018-06-21T11:34:37.024Z,46.70
2018-06-21T11:37:05.542Z,47.20
2018-06-21T11:39:34.073Z,46.80
2018-06-21T11:42:02.526Z,46.00
2018-06-21T11:44:31.126Z,46.20
2018-06-21T11:46:59.622Z,47.30
2018-06-21T11:49:28.150Z,45.80
2018-06-21T11:51:56.659Z,47.20
2018-06-21T11:54:25.146Z,46.30
2018-06-21T11:56:53.712Z,46.40
2018-06-21T11:59:22.286Z,45.70
2018-06-21T12:01:50.861Z,47.10
2018-06-21T12:04:19.454Z,46.50
2018-06-21T12:06:47.896Z,44.40
2018-06-21T12:09:16.371Z,46.50
2018-06-21T12:11:44.874Z,45.70
2018-06-21T12:14:13.415Z,46.90
2018-06-21T12:16:41.891Z,47.30
2018-06-21T12:19:10.418Z,47.30
2018-06-21T12:21:39.074Z,46.30
2018-06-21T12:24:07.591Z,47.50
2018-06-21T12:26:36.143Z,44.90
2018-06-21T12:29:04.731Z,45.30
2018-06-21T12:31:33.260Z,46.70
2018-06-21T12:34:01.828Z,47.40
2018-06-21T12:36:30.436Z,45.20
2018-06-21T12:38:58.958Z,45.20
2018-06-21T12:41:27.587Z,45.70
2018-06-21T12:43:56.134Z,46.10
2018-06-21T12:46:24.712Z,45.70
2018-06-21T12:48:53.227Z,45.60
2018-06-21T12:51:21.747Z,46.30
2018-06-21T12:53:50.239Z,46.80
2018-06-21T12:56:18.713Z,45.40
2018-06-21T12:58:47.318Z,46.00
2018-06-21T13:01:15.823Z,45.80
2018-06-21T13:03:44.359Z,46.10
2018-06-21T13:06:13.379Z,46.50
2018-06-21T13:08:53.005Z,45.80
2018-06-21T13:12:45.382Z,45.70
2018-06-21T13:15:13.951Z,45.10
2018-06-21T13:17:42.558Z,45.60
2018-06-21T13:20:11.086Z,46.50
2018-06-21T13:22:39.530Z,45.50
2018-06-21T13:25:08.124Z,45.70
2018-06-21T13:27:36.715Z,45.70
2018-06-21T13:30:06.678Z,44.80
2018-06-21T13:32:35.220Z,44.70
2018-06-21T13:35:03.801Z,44.90
2018-06-21T13:37:32.327Z,45.60
2018-06-21T13:40:00.890Z,46.00
2018-06-21T13:42:29.362Z,44.80
2018-06-21T13:44:57.986Z,45.40
2018-06-21T13:47:26.526Z,46.50
2018-06-21T13:49:55.884Z,44.90
2018-06-21T13:52:24.421Z,44.70
2018-06-21T13:54:52.986Z,45.60
2018-06-21T13:57:21.634Z,45.00
2018-06-21T13:59:50.312Z,44.50
2018-06-21T14:02:18.719Z,44.80
2018-06-21T14:04:47.206Z,44.80
2018-06-21T14:07:15.777Z,45.30
2018-06-21T14:09:44.310Z,46.20
2018-06-21T14:12:12.767Z,44.90
2018-06-21T14:14:41.314Z,45.80
2018-06-21T14:17:09.799Z,46.00
2018-06-21T14:19:38.330Z,47.00
2018-06-21T14:22:06.976Z,47.30
2018-06-21T14:24:35.502Z,46.80
2018-06-21T14:27:04.071Z,46.20
2018-06-21T14:29:33.358Z,46.60
2018-06-21T14:32:01.874Z,47.10
2018-06-21T14:34:30.354Z,47.00
2018-06-21T14:36:58.833Z,45.40
2018-06-21T14:39:27.318Z,45.90
2018-06-21T14:41:55.802Z,46.50
2018-06-21T14:44:24.306Z,46.50
2018-06-21T14:46:52.915Z,46.50
2018-06-21T14:49:21.386Z,46.50
2018-06-21T14:51:49.979Z,46.10
2018-06-21T14:54:18.458Z,47.60
2018-06-21T14:56:46.946Z,46.60
2018-06-21T14:59:15.400Z,47.60
2018-06-21T15:01:43.891Z,45.00
2018-06-21T15:04:12.371Z,45.30
2018-06-21T15:06:40.850Z,45.20
2018-06-21T15:09:11.419Z,46.10
2018-06-21T15:11:39.971Z,46.60
2018-06-21T15:14:08.902Z,45.10
2018-06-21T15:16:37.413Z,44.90
2018-06-21T15:19:05.932Z,45.70
2018-06-21T15:21:34.437Z,46.20
2018-06-21T15:24:02.924Z,45.80
2018-06-21T15:26:31.427Z,46.30
2018-06-21T15:28:59.981Z,46.50
2018-06-21T15:31:28.495Z,46.20
2018-06-21T15:33:56.987Z,45.60
2018-06-21T15:36:25.430Z,44.90
2018-06-21T15:38:57.535Z,45.10
2018-06-21T15:41:26.986Z,45.50
2018-06-21T15:43:55.563Z,45.80
2018-06-21T15:46:24.107Z,46.10
2018-06-21T15:48:52.590Z,45.60
2018-06-21T15:51:21.098Z,46.10
2018-06-21T15:53:49.591Z,46.20
2018-06-21T15:56:18.050Z,46.90
2018-06-21T15:58:46.488Z,46.90
2018-06-21T16:01:15.008Z,47.40
2018-06-21T16:03:43.508Z,47.50
2018-06-21T16:06:11.980Z,47.50
2018-06-21T16:08:40.532Z,47.50
2018-06-21T16:11:09.051Z,47.80
2018-06-21T16:13:37.536Z,47.30
2018-06-21T16:16:06.077Z,47.70
2018-06-21T16:18:34.542Z,48.30
2018-06-21T16:21:03.030Z,47.30
2018-06-21T16:23:31.553Z,48.20
2018-06-21T16:26:00.094Z,48.10
2018-06-21T16:28:28.539Z,48.10
2018-06-21T16:30:57.026Z,49.00
2018-06-21T16:33:25.542Z,49.30
2018-06-21T16:35:54.081Z,48.90
2018-06-21T16:38:22.758Z,49.40
2018-06-21T16:40:51.229Z,49.50
2018-06-21T16:43:19.791Z,50.20
2018-06-21T16:45:48.236Z,50.30
2018-06-21T16:48:16.691Z,49.80
2018-06-21T16:50:45.232Z,50.30
2018-06-21T16:53:15.888Z,49.80
2018-06-21T16:55:48.891Z,49.80
2018-06-21T16:58:20.791Z,50.20
2018-06-21T17:00:49.286Z,51.10
2018-06-21T17:03:17.759Z,51.20
2018-06-21T17:05:46.283Z,51.20
2018-06-21T17:08:14.978Z,52.10
2018-06-21T17:10:43.545Z,53.00
2018-06-21T17:13:12.006Z,54.50
2018-06-21T17:15:40.490Z,55.40
2018-06-21T17:18:09.046Z,56.00
2018-06-21T17:20:37.531Z,56.90
2018-06-21T17:23:06.050Z,56.90
2018-06-21T17:25:34.587Z,56.60
2018-06-21T17:28:03.723Z,56.40
2018-06-21T17:30:32.283Z,55.70
2018-06-21T17:33:00.854Z,55.80
2018-06-21T17:35:29.364Z,56.40
2018-06-21T17:37:57.878Z,56.30
2018-06-21T17:40:26.438Z,56.40
2018-06-21T17:42:54.969Z,56.70
2018-06-21T17:45:23.555Z,57.20
2018-06-21T17:47:51.993Z,57.40
2018-06-21T17:50:20.447Z,57.90
2018-06-21T17:52:49.014Z,59.50
2018-06-21T17:55:17.510Z,59.90
2018-06-21T17:57:45.996Z,60.70
2018-06-21T18:00:14.526Z,61.60
2018-06-21T18:02:43.550Z,62.00
2018-06-21T18:05:11.981Z,62.60
2018-06-21T18:07:40.491Z,63.10
2018-06-21T18:10:08.970Z,63.60
2018-06-21T18:12:37.547Z,63.90
2018-06-21T18:15:06.038Z,65.00
2018-06-21T18:17:34.527Z,66.20
2018-06-21T18:20:03.139Z,67.10
2018-06-21T18:22:31.583Z,68.00
2018-06-21T18:25:00.156Z,69.00
2018-06-21T18:27:28.691Z,69.70
2018-06-21T18:29:57.186Z,70.20
2018-06-21T18:32:25.718Z,70.80
2018-06-21T18:34:54.327Z,70.50
2018-06-21T18:37:22.837Z,70.30
2018-06-21T18:39:51.462Z,64.10
2018-06-21T18:42:20.035Z,65.10
2018-06-21T18:44:49.025Z,68.90
2018-06-21T18:47:17.491Z,71.50
2018-06-21T18:49:46.831Z,73.60
2018-06-21T18:52:16.127Z,76.00
2018-06-21T18:54:44.734Z,77.90
2018-06-21T18:57:13.254Z,79.70
2018-06-21T18:59:41.748Z,81.80
2018-06-21T19:02:10.231Z,83.30
2018-06-21T19:04:38.692Z,87.60
2018-06-21T19:07:42.514Z,89.80
2018-06-21T19:10:16.576Z,90.80
2018-06-21T19:12:45.075Z,92.20
2018-06-21T19:15:13.674Z,93.00
2018-06-21T19:17:42.187Z,93.80
2018-06-21T19:20:10.871Z,94.00
2018-06-21T19:22:39.365Z,94.20
2018-06-21T19:25:07.907Z,94.10
2018-06-21T19:27:36.975Z,94.10
2018-06-21T19:30:05.853Z,93.70
2018-06-21T19:32:34.372Z,93.90
2018-06-21T19:35:03.007Z,93.80
2018-06-21T19:37:31.567Z,93.90
2018-06-21T19:40:01.716Z,93.60
2018-06-21T19:42:30.300Z,93.50
2018-06-21T19:44:58.782Z,93.70
2018-06-21T19:47:27.301Z,93.90
2018-06-21T19:49:55.996Z,93.90
2018-06-21T19:52:24.578Z,94.90
2018-06-21T19:54:53.141Z,95.20
2018-06-21T19:57:21.833Z,94.90
2018-06-21T19:59:50.323Z,95.00
2018-06-21T20:02:18.999Z,95.30
2018-06-21T20:04:47.431Z,95.20
2018-06-21T20:07:15.997Z,95.40
2018-06-21T20:09:44.513Z,95.40
2018-06-21T20:12:13.057Z,95.20
2018-06-21T20:14:41.590Z,95.50
2018-06-21T20:17:10.094Z,95.40
2018-06-21T20:19:43.958Z,96.10
2018-06-21T20:22:12.543Z,96.10
2018-06-21T20:24:41.096Z,95.80
2018-06-21T20:27:09.603Z,96.20
2018-06-21T20:29:38.188Z,95.90
2018-06-21T20:32:06.683Z,94.90
2018-06-21T20:34:35.239Z,94.50
2018-06-21T20:37:03.898Z,93.10
2018-06-21T20:39:32.412Z,93.30
2018-06-21T20:42:01.019Z,93.20
2018-06-21T20:44:29.514Z,94.10
2018-06-21T20:46:58.084Z,93.20
2018-06-21T20:49:26.734Z,93.10
2018-06-21T20:51:55.226Z,94.00
2018-06-21T20:56:51.895Z,93.50
2018-06-21T20:59:20.478Z,93.70
2018-06-21T21:01:48.970Z,93.30
2018-06-21T21:04:17.482Z,93.80
2018-06-21T21:06:45.991Z,94.10
2018-06-21T21:09:19.834Z,94.10
2018-06-21T21:11:48.411Z,94.30
2018-06-21T21:14:16.960Z,94.00
2018-06-21T21:16:45.463Z,93.80
2018-06-21T21:19:13.991Z,94.70
2018-06-21T21:21:42.473Z,94.80
2018-06-21T21:24:10.994Z,95.30
2018-06-21T21:26:39.483Z,94.80
2018-06-21T21:29:08.026Z,95.40
2018-06-21T21:31:36.564Z,96.20
2018-06-21T21:34:05.199Z,96.20
2018-06-21T21:36:34.402Z,96.40
2018-06-21T21:39:02.930Z,96.90
2018-06-21T21:41:31.406Z,97.30
2018-06-21T21:43:59.854Z,97.30
2018-06-21T21:46:28.351Z,97.70
2018-06-21T21:48:56.892Z,98.20
2018-06-21T21:51:25.367Z,98.50
2018-06-21T21:53:53.831Z,98.80
2018-06-21T21:56:22.314Z,98.40
2018-06-21T21:58:50.786Z,97.60
2018-06-21T22:01:19.328Z,97.60
2018-06-21T22:03:47.899Z,97.30
2018-06-21T22:06:16.368Z,95.10
2018-06-21T22:08:44.838Z,95.20
2018-06-21T22:11:13.254Z,94.30
2018-06-21T22:13:41.714Z,94.30
2018-06-21T22:16:10.171Z,94.60
2018-06-21T22:18:38.625Z,94.00
2018-06-21T22:21:07.064Z,93.90
2018-06-21T22:23:35.528Z,94.10
2018-06-21T22:26:03.942Z,94.60
2018-06-21T22:28:32.415Z,93.90
2018-06-21T22:31:00.842Z,93.40
2018-06-21T22:33:29.282Z,93.80
2018-06-21T22:35:57.770Z,93.10
2018-06-21T22:38:26.207Z,93.10
2018-06-21T22:40:54.623Z,93.80
2018-06-21T22:43:23.107Z,94.10
2018-06-21T22:45:51.582Z,93.80
2018-06-21T22:48:20.072Z,94.40
2018-06-21T22:50:48.567Z,94.50
2018-06-21T22:53:17.090Z,93.90
2018-06-21T22:55:45.555Z,94.20
2018-06-21T22:58:14.126Z,94.80
2018-06-21T23:00:42.531Z,94.50
2018-06-21T23:03:10.975Z,94.90
2018-06-21T23:05:39.504Z,95.50
2018-06-21T23:08:07.966Z,95.50
2018-06-21T23:10:36.400Z,95.20
2018-06-21T23:13:04.830Z,96.20
2018-06-21T23:15:33.331Z,96.00
2018-06-21T23:18:01.795Z,96.40
2018-06-21T23:20:30.275Z,96.90
2018-06-21T23:22:58.767Z,96.70
2018-06-21T23:25:27.210Z,96.10
2018-06-21T23:27:55.776Z,96.40
2018-06-21T23:30:24.260Z,97.00
2018-06-21T23:32:52.695Z,97.60
2018-06-21T23:35:21.220Z,97.40
2018-06-21T23:37:49.658Z,97.20
2018-06-21T23:40:18.223Z,97.60
2018-06-21T23:42:46.730Z,97.70
2018-06-21T23:45:15.178Z,97.60
2018-06-21T23:47:43.666Z,97.00
2018-06-21T23:50:12.117Z,97.00
2018-06-21T23:52:40.530Z,97.10
2018-06-21T23:55:09.500Z,96.50
2018-06-21T23:57:38.011Z,96.00
